createdAt,value
2022-10-10T00:00:49.698Z,87.60
2022-10-10T00:03:17.282Z,87.60
2022-10-10T00:05:43.923Z,87.90
2022-10-10T00:08:10.651Z,88.50
2022-10-10T00:10:39.536Z,88.00
2022-10-10T00:13:06.656Z,87.70
2022-10-10T00:15:33.319Z,88.40
2022-10-10T00:18:00.097Z,88.50
2022-10-10T00:20:28.161Z,88.00
2022-10-10T00:22:55.018Z,88.00
2022-10-10T00:25:21.844Z,87.90
2022-10-10T00:27:50.613Z,88.10
2022-10-10T00:30:17.308Z,88.50
2022-10-10T00:32:43.954Z,88.60
2022-10-10T00:35:10.579Z,88.30
2022-10-10T00:37:37.289Z,88.40
2022-10-10T00:40:05.076Z,88.40
2022-10-10T00:42:31.762Z,88.20
2022-10-10T00:45:17.146Z,88.10
2022-10-10T00:47:43.861Z,88.00
2022-10-10T00:50:10.531Z,87.80
2022-10-10T00:52:37.425Z,88.00
2022-10-10T00:55:04.292Z,87.90
2022-10-10T00:57:30.993Z,87.70
2022-10-10T00:59:57.977Z,88.20
2022-10-10T01:02:29.770Z,88.40
2022-10-10T01:04:56.525Z,88.50
2022-10-10T01:07:25.038Z,88.30
2022-10-10T01:09:56.507Z,88.50
2022-10-10T01:12:26.874Z,88.90
2022-10-10T01:15:12.371Z,88.50
2022-10-10T01:18:02.377Z,88.60
2022-10-10T01:20:28.985Z,88.90
2022-10-10T01:23:22.004Z,88.60
2022-10-10T01:26:01.771Z,89.20
2022-10-10T01:28:34.887Z,88.80
2022-10-10T01:31:02.582Z,88.50
2022-10-10T01:33:37.762Z,88.60
2022-10-10T01:36:06.999Z,88.30
2022-10-10T01:38:41.874Z,88.30
2022-10-10T01:41:10.858Z,88.60
2022-10-10T01:43:38.664Z,88.60
2022-10-10T01:46:11.177Z,88.50
2022-10-10T01:48:38.365Z,88.80
2022-10-10T01:51:06.019Z,88.50
2022-10-10T01:53:40.222Z,88.60
2022-10-10T01:56:17.974Z,88.60
2022-10-10T01:59:04.852Z,89.30
2022-10-10T02:01:51.484Z,88.90
2022-10-10T02:04:24.026Z,88.50
2022-10-10T02:06:53.412Z,88.50
2022-10-10T02:09:31.039Z,88.60
2022-10-10T02:11:59.056Z,88.60
2022-10-10T02:14:39.939Z,88.40
2022-10-10T02:17:08.741Z,88.50
2022-10-10T02:19:35.666Z,88.60
2022-10-10T02:22:03.821Z,88.50
2022-10-10T02:24:30.725Z,88.50
2022-10-10T02:27:08.183Z,88.50
2022-10-10T02:29:36.478Z,88.90
2022-10-10T02:32:09.272Z,88.70
2022-10-10T02:34:37.248Z,88.50
2022-10-10T02:37:06.445Z,88.30
2022-10-10T02:39:38.880Z,88.40
2022-10-10T02:42:06.910Z,88.60
2022-10-10T02:44:33.875Z,89.10
2022-10-10T02:47:00.707Z,88.60
2022-10-10T02:49:31.241Z,88.70
2022-10-10T02:51:57.968Z,88.70
2022-10-10T02:54:24.764Z,88.80
2022-10-10T02:56:51.799Z,88.70
2022-10-10T02:59:18.502Z,88.80
2022-10-10T03:01:45.447Z,88.70
2022-10-10T03:04:12.012Z,88.70
2022-10-10T03:06:38.847Z,89.40
2022-10-10T03:09:05.633Z,89.00
2022-10-10T03:11:32.297Z,89.30
2022-10-10T03:13:58.889Z,89.00
2022-10-10T03:16:27.540Z,88.90
2022-10-10T03:18:54.136Z,88.90
2022-10-10T03:21:23.065Z,89.00
2022-10-10T03:23:49.794Z,89.10
2022-10-10T03:26:16.439Z,90.00
2022-10-10T03:28:43.130Z,89.70
2022-10-10T03:31:09.734Z,89.40
2022-10-10T03:33:36.499Z,89.50
2022-10-10T03:36:03.435Z,89.60
2022-10-10T03:38:30.182Z,89.60
2022-10-10T03:40:56.795Z,89.50
2022-10-10T03:43:24.511Z,89.50
2022-10-10T03:45:51.088Z,89.30
2022-10-10T03:48:17.682Z,89.30
2022-10-10T03:50:44.305Z,89.50
2022-10-10T03:53:11.236Z,89.50
2022-10-10T03:55:42.360Z,89.50
2022-10-10T03:58:11.857Z,89.80
2022-10-10T04:00:38.829Z,89.40
2022-10-10T04:03:06.602Z,89.70
2022-10-10T04:05:37.665Z,89.80
2022-10-10T04:08:05.122Z,89.50
2022-10-10T04:10:32.103Z,89.70
2022-10-10T04:12:58.895Z,89.90
2022-10-10T04:15:26.762Z,90.10
2022-10-10T04:17:53.472Z,90.00
2022-10-10T04:20:22.539Z,89.90
2022-10-10T04:22:49.597Z,89.90
2022-10-10T04:25:16.431Z,89.80
2022-10-10T04:27:44.022Z,89.80
2022-10-10T04:30:11.337Z,89.60
2022-10-10T04:32:38.087Z,89.70
2022-10-10T04:35:05.138Z,89.60
2022-10-10T04:37:33.462Z,89.60
2022-10-10T04:42:35.641Z,89.60
2022-10-10T04:45:02.359Z,89.50
2022-10-10T04:47:29.032Z,89.90
2022-10-10T04:49:55.657Z,89.70
2022-10-10T04:52:24.550Z,89.80
2022-10-10T04:54:51.168Z,89.80
2022-10-10T04:57:19.951Z,89.90
2022-10-10T04:59:48.693Z,89.80
2022-10-10T05:02:15.407Z,90.00
2022-10-10T05:04:45.152Z,90.00
2022-10-10T05:07:13.112Z,89.90
2022-10-10T05:09:39.744Z,89.90
2022-10-10T05:12:07.031Z,89.90
2022-10-10T05:14:33.754Z,90.70
2022-10-10T05:17:00.358Z,90.60
2022-10-10T05:19:27.048Z,90.30
2022-10-10T05:21:53.632Z,90.20
2022-10-10T05:24:22.866Z,90.20
2022-10-10T05:26:49.463Z,90.10
2022-10-10T05:29:16.142Z,90.10
2022-10-10T05:31:42.847Z,90.50
2022-10-10T05:34:12.516Z,90.80
2022-10-10T05:36:39.542Z,90.80
2022-10-10T05:39:06.389Z,90.90
2022-10-10T05:41:33.110Z,91.10
2022-10-10T05:43:59.840Z,91.10
2022-10-10T05:46:27.478Z,91.50
2022-10-10T05:49:00.230Z,91.70
2022-10-10T05:51:26.929Z,91.90
2022-10-10T05:53:53.584Z,91.90
2022-10-10T05:56:20.459Z,92.10
2022-10-10T05:58:47.032Z,92.00
2022-10-10T06:01:13.716Z,92.10
2022-10-10T06:03:40.485Z,92.40
2022-10-10T06:06:07.412Z,92.50
2022-10-10T06:08:35.696Z,92.70
2022-10-10T06:11:08.674Z,92.90
2022-10-10T06:13:35.281Z,93.00
2022-10-10T06:16:09.124Z,93.20
2022-10-10T06:18:35.977Z,93.30
2022-10-10T06:21:11.960Z,93.40
2022-10-10T06:23:38.539Z,93.40
2022-10-10T06:26:06.250Z,93.50
2022-10-10T06:28:33.205Z,93.50
2022-10-10T06:31:03.669Z,93.50
2022-10-10T06:33:30.415Z,93.50
2022-10-10T06:35:57.128Z,93.60
2022-10-10T06:38:23.731Z,93.50
2022-10-10T06:40:50.715Z,93.50
2022-10-10T06:43:17.765Z,93.40
2022-10-10T06:45:45.357Z,93.40
2022-10-10T06:48:14.552Z,93.40
2022-10-10T06:50:41.355Z,93.30
2022-10-10T06:53:08.430Z,93.20
2022-10-10T06:55:35.062Z,93.10
2022-10-10T06:58:01.899Z,92.90
2022-10-10T07:00:30.218Z,92.70
2022-10-10T07:02:56.924Z,92.50
2022-10-10T07:05:23.768Z,92.10
2022-10-10T07:07:51.690Z,91.80
2022-10-10T07:10:18.362Z,91.50
2022-10-10T07:12:45.356Z,91.20
2022-10-10T07:15:12.600Z,91.10
2022-10-10T07:17:39.554Z,90.90
2022-10-10T07:20:06.384Z,90.70
2022-10-10T07:22:33.118Z,90.60
2022-10-10T07:24:59.855Z,90.50
2022-10-10T07:27:26.443Z,90.40
2022-10-10T07:29:55.173Z,89.90
2022-10-10T07:32:22.955Z,89.30
2022-10-10T07:34:50.949Z,89.10
2022-10-10T07:37:17.969Z,88.40
2022-10-10T07:39:44.753Z,87.10
2022-10-10T07:42:13.539Z,86.40
2022-10-10T07:44:40.112Z,86.40
2022-10-10T07:47:08.055Z,86.20
2022-10-10T07:49:36.815Z,86.10
2022-10-10T07:52:06.486Z,85.50
2022-10-10T07:54:33.327Z,85.00
2022-10-10T07:56:59.996Z,85.40
2022-10-10T07:59:26.659Z,84.70
2022-10-10T08:01:53.375Z,84.80
2022-10-10T08:04:20.442Z,85.50
2022-10-10T08:06:47.048Z,84.10
2022-10-10T08:09:13.689Z,83.30
2022-10-10T08:11:40.412Z,84.10
2022-10-10T08:14:07.032Z,84.00
2022-10-10T08:16:34.667Z,82.50
2022-10-10T08:19:01.529Z,82.70
2022-10-10T08:21:28.436Z,83.00
2022-10-10T08:23:55.298Z,83.30
2022-10-10T08:26:21.927Z,83.70
2022-10-10T08:28:48.868Z,82.70
2022-10-10T08:31:16.976Z,82.90
2022-10-10T08:33:45.843Z,83.00
2022-10-10T08:36:17.882Z,82.80
2022-10-10T08:38:45.905Z,83.10
2022-10-10T08:41:31.130Z,82.80
2022-10-10T08:44:03.569Z,82.30
2022-10-10T08:46:42.515Z,82.90
2022-10-10T08:49:29.567Z,82.40
2022-10-10T08:52:02.767Z,82.20
2022-10-10T08:54:35.763Z,81.70
2022-10-10T08:57:04.892Z,81.70
2022-10-10T08:59:34.549Z,81.90
2022-10-10T09:02:26.080Z,81.30
2022-10-10T09:04:53.147Z,81.00
2022-10-10T09:07:28.946Z,80.70
2022-10-10T09:09:58.613Z,79.90
2022-10-10T09:12:32.946Z,80.70
2022-10-10T09:15:03.049Z,79.30
2022-10-10T09:17:36.568Z,77.90
2022-10-10T09:20:12.592Z,78.00
2022-10-10T09:23:05.676Z,79.00
2022-10-10T09:25:41.321Z,79.10
2022-10-10T09:28:13.291Z,79.80
2022-10-10T09:30:43.588Z,78.70
2022-10-10T09:33:20.822Z,78.50
2022-10-10T09:35:49.840Z,78.90
2022-10-10T09:38:34.408Z,79.10
2022-10-10T09:41:24.327Z,78.80
2022-10-10T09:43:57.360Z,78.50
2022-10-10T09:46:24.141Z,78.60
2022-10-10T09:48:51.729Z,78.30
2022-10-10T09:51:19.157Z,77.10
2022-10-10T09:53:47.714Z,77.80
2022-10-10T09:56:18.382Z,78.50
2022-10-10T09:58:46.480Z,77.70
2022-10-10T10:01:15.927Z,77.20
2022-10-10T10:03:42.826Z,76.30
2022-10-10T10:06:14.116Z,75.90
2022-10-10T10:08:45.654Z,75.90
2022-10-10T10:11:28.597Z,76.70
2022-10-10T10:13:56.621Z,76.40
2022-10-10T10:16:31.746Z,75.70
2022-10-10T10:18:58.462Z,74.20
2022-10-10T10:21:25.273Z,74.70
2022-10-10T10:23:58.013Z,74.20
2022-10-10T10:26:47.767Z,72.40
2022-10-10T10:29:34.008Z,72.90
2022-10-10T10:32:19.402Z,72.10
2022-10-10T10:34:46.156Z,73.80
2022-10-10T10:37:21.859Z,75.90
2022-10-10T10:39:48.466Z,74.90
2022-10-10T10:42:15.156Z,73.20
2022-10-10T10:44:48.062Z,72.70
2022-10-10T10:47:28.281Z,72.00
2022-10-10T10:50:07.208Z,71.10
2022-10-10T10:52:37.044Z,70.60
2022-10-10T10:55:12.023Z,73.00
2022-10-10T10:58:04.061Z,73.60
2022-10-10T11:05:15.437Z,71.30
2022-10-10T11:06:05.791Z,71.70
2022-10-10T11:08:32.677Z,72.20
2022-10-10T11:11:17.982Z,71.80
2022-10-10T11:13:47.865Z,70.20
2022-10-10T11:19:29.577Z,69.60
2022-10-10T11:21:59.370Z,71.40
2022-10-10T11:24:27.167Z,71.80
2022-10-10T11:26:55.961Z,71.50
2022-10-10T11:29:30.568Z,70.40
2022-10-10T11:32:09.266Z,70.10
2022-10-10T11:34:42.911Z,70.40
2022-10-10T11:37:17.050Z,70.20
2022-10-10T11:40:01.298Z,69.20
2022-10-10T11:42:39.923Z,68.90
2022-10-10T11:45:09.720Z,69.90
2022-10-10T11:47:58.332Z,69.30
2022-10-10T11:50:29.509Z,68.70
2022-10-10T11:52:56.107Z,68.20
2022-10-10T11:55:37.922Z,68.30
2022-10-10T11:58:04.703Z,68.20
2022-10-10T12:00:37.307Z,68.80
2022-10-10T12:03:05.443Z,67.40
2022-10-10T12:05:38.757Z,68.20
2022-10-10T12:08:18.062Z,67.80
2022-10-10T12:11:00.179Z,68.20
2022-10-10T12:13:38.583Z,67.60
2022-10-10T12:16:07.797Z,66.90
2022-10-10T12:18:39.962Z,67.20
2022-10-10T12:21:08.732Z,67.40
2022-10-10T12:23:38.037Z,67.50
2022-10-10T12:26:04.807Z,67.00
2022-10-10T12:28:36.993Z,67.10
2022-10-10T12:31:06.636Z,67.20
2022-10-10T12:33:33.405Z,67.70
2022-10-10T12:36:21.502Z,67.10
2022-10-10T12:39:05.861Z,66.80
2022-10-10T12:41:46.328Z,67.00
2022-10-10T12:44:32.694Z,66.30
2022-10-10T12:47:14.802Z,66.70
2022-10-10T12:49:57.574Z,66.70
2022-10-10T12:52:27.644Z,65.70
2022-10-10T12:55:05.803Z,65.60
2022-10-10T12:57:36.988Z,65.40
2022-10-10T13:00:06.354Z,65.50
2022-10-10T13:02:34.392Z,66.20
2022-10-10T13:05:02.229Z,66.90
2022-10-10T13:07:29.308Z,66.90
2022-10-10T13:10:03.874Z,65.50
2022-10-10T13:12:31.173Z,64.80
2022-10-10T13:14:58.056Z,65.90
2022-10-10T13:17:27.505Z,65.00
2022-10-10T13:19:55.109Z,64.80
2022-10-10T13:22:22.070Z,65.20
2022-10-10T13:24:54.487Z,64.90
2022-10-10T13:27:26.148Z,64.80
2022-10-10T13:29:53.664Z,64.40
2022-10-10T13:32:22.254Z,64.50
2022-10-10T13:34:50.368Z,64.40
2022-10-10T13:37:18.649Z,64.40
2022-10-10T13:39:47.578Z,64.20
2022-10-10T13:42:23.504Z,63.50
2022-10-10T13:44:51.577Z,63.00
2022-10-10T13:47:43.677Z,63.00
2022-10-10T13:50:21.998Z,62.80
2022-10-10T13:52:48.747Z,62.00
2022-10-10T13:55:25.243Z,61.80
2022-10-10T13:57:58.237Z,62.90
2022-10-10T14:00:35.378Z,63.40
2022-10-10T14:03:02.712Z,63.10
2022-10-10T14:05:30.788Z,61.80
2022-10-10T14:07:57.927Z,62.50
2022-10-10T14:10:25.888Z,63.00
2022-10-10T14:12:54.534Z,63.90
2022-10-10T14:15:32.587Z,64.70
2022-10-10T14:17:59.265Z,63.60
2022-10-10T14:20:25.836Z,65.20
2022-10-10T14:22:52.661Z,64.60
2022-10-10T14:25:26.652Z,63.10
2022-10-10T14:27:54.563Z,65.10
2022-10-10T14:30:27.174Z,65.80
2022-10-10T14:33:00.933Z,66.00
2022-10-10T14:35:28.767Z,65.50
2022-10-10T14:37:55.387Z,64.80
2022-10-10T14:40:22.846Z,65.60
2022-10-10T14:42:49.516Z,67.00
2022-10-10T14:45:16.832Z,67.00
2022-10-10T14:47:43.471Z,67.80
2022-10-10T14:50:17.790Z,69.10
2022-10-10T14:52:47.676Z,69.10
2022-10-10T14:55:14.456Z,70.50
2022-10-10T14:57:42.144Z,70.60
2022-10-10T15:00:14.985Z,71.20
2022-10-10T15:02:45.624Z,68.20
2022-10-10T15:05:14.604Z,70.80
2022-10-10T15:07:41.806Z,71.80
2022-10-10T15:10:32.792Z,72.50
2022-10-10T15:12:58.409Z,72.60
2022-10-10T15:15:25.120Z,70.60
2022-10-10T15:17:51.897Z,72.10
2022-10-10T15:20:30.693Z,72.20
2022-10-10T15:23:04.475Z,71.30
2022-10-10T15:25:34.005Z,72.30
2022-10-10T15:28:05.346Z,73.40
2022-10-10T15:30:33.138Z,73.10
2022-10-10T15:33:01.853Z,74.00
2022-10-10T15:35:44.736Z,74.10
2022-10-10T15:38:18.328Z,73.90
2022-10-10T15:40:44.989Z,74.40
2022-10-10T15:43:11.724Z,74.40
2022-10-10T15:45:55.370Z,74.30
2022-10-10T15:48:24.973Z,75.10
2022-10-10T15:50:52.058Z,75.50
2022-10-10T15:53:18.975Z,75.80
2022-10-10T15:55:47.978Z,75.70
2022-10-10T15:58:15.348Z,76.10
2022-10-10T16:00:43.217Z,76.70
2022-10-10T16:03:09.981Z,77.20
2022-10-10T16:05:40.966Z,77.50
2022-10-10T16:08:11.294Z,77.70
2022-10-10T16:10:39.052Z,77.30
2022-10-10T16:13:09.925Z,77.40
2022-10-10T16:15:36.803Z,78.30
2022-10-10T16:18:03.507Z,77.70
2022-10-10T16:20:31.130Z,78.50
2022-10-10T16:22:58.823Z,78.60
2022-10-10T16:25:26.774Z,79.00
2022-10-10T16:28:02.473Z,79.90
2022-10-10T16:30:36.726Z,79.90
2022-10-10T16:33:03.601Z,80.00
2022-10-10T16:35:35.784Z,78.80
2022-10-10T16:38:03.788Z,78.90
2022-10-10T16:40:34.595Z,79.50
2022-10-10T16:43:01.251Z,79.90
2022-10-10T16:45:27.931Z,79.70
2022-10-10T16:47:54.665Z,80.00
2022-10-10T16:50:21.354Z,79.50
2022-10-10T16:52:48.102Z,79.90
2022-10-10T16:55:14.921Z,79.50
2022-10-10T16:57:41.638Z,80.10
2022-10-10T17:00:08.868Z,80.30
2022-10-10T17:02:35.829Z,80.80
2022-10-10T17:05:09.956Z,80.60
2022-10-10T17:07:36.684Z,80.40
2022-10-10T17:10:03.889Z,81.10
2022-10-10T17:12:43.619Z,80.90
2022-10-10T17:15:11.411Z,81.50
2022-10-10T17:17:39.090Z,81.80
2022-10-10T17:20:06.454Z,81.90
2022-10-10T17:22:33.382Z,81.40
2022-10-10T17:25:00.797Z,81.50
2022-10-10T17:27:28.516Z,81.30
2022-10-10T17:29:55.517Z,82.10
2022-10-10T17:32:29.122Z,82.00
2022-10-10T17:34:55.903Z,82.20
2022-10-10T17:37:22.516Z,82.10
2022-10-10T17:39:49.655Z,82.20
2022-10-10T17:42:16.414Z,81.70
2022-10-10T17:44:49.621Z,82.60
2022-10-10T17:47:18.153Z,82.10
2022-10-10T17:49:46.634Z,82.50
2022-10-10T17:52:15.572Z,82.30
2022-10-10T17:54:45.595Z,82.90
2022-10-10T17:57:12.289Z,82.80
2022-10-10T17:59:39.053Z,82.60
2022-10-10T18:02:06.886Z,83.20
2022-10-10T18:04:33.502Z,83.20
2022-10-10T18:07:02.156Z,82.30
2022-10-10T18:09:29.868Z,82.40
2022-10-10T18:11:58.088Z,83.00
2022-10-10T18:14:28.812Z,83.50
2022-10-10T18:16:58.548Z,83.80
2022-10-10T18:19:25.230Z,84.10
2022-10-10T18:21:51.881Z,84.10
2022-10-10T18:24:18.639Z,83.90
2022-10-10T18:26:46.415Z,83.70
2022-10-10T18:29:13.113Z,84.30
2022-10-10T18:31:39.805Z,84.80
2022-10-10T18:34:06.773Z,84.10
2022-10-10T18:36:34.826Z,84.40
2022-10-10T18:39:09.162Z,84.40
2022-10-10T18:41:37.299Z,85.00
2022-10-10T18:44:06.244Z,85.10
2022-10-10T18:46:33.534Z,84.40
2022-10-10T18:49:03.386Z,84.30
2022-10-10T18:51:30.324Z,84.60
2022-10-10T18:54:03.180Z,84.50
2022-10-10T18:56:31.273Z,85.40
2022-10-10T18:59:01.082Z,85.40
2022-10-10T19:01:28.792Z,85.70
2022-10-10T19:03:55.894Z,85.40
2022-10-10T19:06:24.570Z,85.60
2022-10-10T19:08:53.480Z,85.80
2022-10-10T19:11:27.415Z,85.40
2022-10-10T19:13:54.054Z,85.40
2022-10-10T19:16:23.368Z,85.70
2022-10-10T19:18:50.081Z,85.40
2022-10-10T19:21:17.235Z,85.20
2022-10-10T19:23:45.267Z,85.40
2022-10-10T19:26:13.914Z,85.30
2022-10-10T19:28:42.513Z,85.40
2022-10-10T19:31:20.257Z,85.50
2022-10-10T19:33:50.836Z,85.50
2022-10-10T19:36:17.450Z,85.90
2022-10-10T19:38:45.351Z,86.20
2022-10-10T19:41:12.970Z,86.10
2022-10-10T19:43:43.502Z,85.80
2022-10-10T19:46:14.382Z,87.10
2022-10-10T19:48:41.081Z,86.70
2022-10-10T19:51:11.662Z,87.00
2022-10-10T19:53:39.000Z,86.60
2022-10-10T19:56:07.199Z,86.80
2022-10-10T19:58:34.428Z,87.00
2022-10-10T20:01:05.341Z,86.60
2022-10-10T20:03:33.076Z,86.80
2022-10-10T20:06:00.875Z,86.70
2022-10-10T20:08:28.265Z,86.30
2022-10-10T20:10:55.368Z,86.40
2022-10-10T20:13:22.137Z,86.20
2022-10-10T20:15:51.984Z,86.30
2022-10-10T20:18:20.440Z,86.20
2022-10-10T20:20:51.022Z,86.40
2022-10-10T20:23:19.555Z,86.60
2022-10-10T20:25:47.354Z,86.70
2022-10-10T20:28:14.779Z,86.80
2022-10-10T20:30:45.381Z,86.70
2022-10-10T20:33:11.962Z,86.60
2022-10-10T20:35:38.652Z,86.80
2022-10-10T20:38:10.642Z,87.00
2022-10-10T20:40:41.356Z,86.90
2022-10-10T20:43:08.409Z,87.30
2022-10-10T20:45:36.224Z,87.60
2022-10-10T20:48:03.344Z,87.30
2022-10-10T20:50:35.555Z,87.40
2022-10-10T20:53:02.253Z,87.40
2022-10-10T20:55:29.979Z,87.30
2022-10-10T20:57:56.687Z,87.10
2022-10-10T21:00:23.354Z,87.30
2022-10-10T21:02:50.103Z,87.30
2022-10-10T21:05:18.494Z,87.40
2022-10-10T21:07:46.122Z,87.40
2022-10-10T21:10:12.775Z,87.50
2022-10-10T21:12:40.501Z,87.50
2022-10-10T21:15:07.391Z,87.40
2022-10-10T21:17:35.124Z,87.30
2022-10-10T21:20:01.927Z,87.70
2022-10-10T21:22:28.503Z,87.70
2022-10-10T21:24:55.216Z,87.60
2022-10-10T21:27:22.878Z,87.60
2022-10-10T21:29:49.523Z,87.90
2022-10-10T21:32:16.111Z,87.90
2022-10-10T21:34:43.028Z,87.90
2022-10-10T21:37:12.983Z,88.00
2022-10-10T21:39:39.989Z,88.10
2022-10-10T21:42:06.690Z,88.10
2022-10-10T21:44:35.096Z,88.20
2022-10-10T21:47:05.876Z,88.50
2022-10-10T21:49:32.869Z,88.30
2022-10-10T21:51:59.532Z,88.30
2022-10-10T21:54:26.193Z,88.10
2022-10-10T21:56:52.769Z,88.50
2022-10-10T21:59:19.429Z,88.50
2022-10-10T22:01:46.079Z,88.40
2022-10-10T22:04:12.724Z,88.40
2022-10-10T22:06:39.410Z,88.00
2022-10-10T22:09:09.550Z,88.50
2022-10-10T22:11:36.322Z,88.80
2022-10-10T22:14:03.807Z,88.90
2022-10-10T22:16:32.694Z,88.70
2022-10-10T22:18:59.660Z,89.10
2022-10-10T22:21:30.241Z,88.90
2022-10-10T22:23:57.921Z,89.30
2022-10-10T22:26:25.550Z,89.30
2022-10-10T22:28:54.280Z,89.60
2022-10-10T22:31:27.021Z,89.40
2022-10-10T22:33:53.677Z,89.40
2022-10-10T22:36:20.490Z,89.30
2022-10-10T22:38:47.134Z,89.40
2022-10-10T22:41:13.812Z,89.40
2022-10-10T22:43:40.541Z,89.30
2022-10-10T22:46:11.770Z,89.10
2022-10-10T22:48:41.620Z,89.20
2022-10-10T22:51:10.510Z,89.30
2022-10-10T22:53:38.222Z,89.20
2022-10-10T22:56:05.297Z,89.20
2022-10-10T22:58:32.293Z,89.20
2022-10-10T23:01:07.368Z,89.20
2022-10-10T23:03:34.028Z,89.00
2022-10-10T23:06:01.110Z,89.00
2022-10-10T23:08:28.025Z,89.10
2022-10-10T23:10:54.701Z,89.10
2022-10-10T23:13:21.675Z,89.50
2022-10-10T23:15:48.689Z,89.40
2022-10-10T23:18:15.319Z,89.70
2022-10-10T23:20:41.961Z,90.00
2022-10-10T23:23:08.794Z,90.30
2022-10-10T23:25:39.863Z,90.20
2022-10-10T23:28:06.621Z,90.70
2022-10-10T23:30:35.691Z,90.60
2022-10-10T23:33:02.327Z,90.80
2022-10-10T23:35:30.102Z,91.20
2022-10-10T23:37:56.989Z,91.50
2022-10-10T23:40:24.041Z,91.50
2022-10-10T23:42:50.877Z,92.20
2022-10-10T23:45:17.819Z,91.90
2022-10-10T23:47:44.998Z,91.80
2022-10-10T23:50:11.830Z,91.70
2022-10-10T23:52:40.013Z,91.70
2022-10-10T23:55:07.107Z,91.80
2022-10-10T23:57:33.811Z,91.90
